createdAt,value
2022-12-15T00:00:36.902Z,0.60
2022-12-15T00:05:58.154Z,0.60
2022-12-15T00:11:21.304Z,0.60
2022-12-15T00:16:42.722Z,0.70
2022-12-15T00:22:04.855Z,0.60
2022-12-15T00:27:26.076Z,0.60
2022-12-15T00:32:47.337Z,0.70
2022-12-15T00:38:08.480Z,0.60
2022-12-15T00:43:12.220Z,0.60
2022-12-15T00:48:15.328Z,0.70
2022-12-15T00:53:41.015Z,0.70
2022-12-15T00:59:02.342Z,0.70
2022-12-15T01:04:23.714Z,0.70
2022-12-15T01:09:45.536Z,0.70
2022-12-15T01:15:06.607Z,0.70
2022-12-15T01:20:20.236Z,0.70
2022-12-15T01:25:26.252Z,0.70
2022-12-15T01:30:29.179Z,0.70
2022-12-15T01:35:32.692Z,0.70
2022-12-15T01:40:45.396Z,0.70
2022-12-15T01:46:12.706Z,0.70
2022-12-15T01:51:34.020Z,0.70
2022-12-15T01:56:46.432Z,0.80
2022-12-15T02:01:49.524Z,0.80
2022-12-15T02:06:53.747Z,0.80
2022-12-15T02:12:07.077Z,0.80
2022-12-15T02:17:19.994Z,0.80
2022-12-15T02:23:03.846Z,0.80
2022-12-15T02:28:21.405Z,0.80
2022-12-15T02:33:30.011Z,0.80
2022-12-15T02:38:38.323Z,0.80
2022-12-15T02:43:41.075Z,0.70
2022-12-15T02:49:21.932Z,0.70
2022-12-15T02:55:11.398Z,0.70
2022-12-15T03:00:17.224Z,0.70
2022-12-15T03:05:22.537Z,0.70
2022-12-15T03:10:26.518Z,0.70
2022-12-15T03:15:35.056Z,0.70
2022-12-15T03:20:38.727Z,0.70
2022-12-15T03:25:41.781Z,0.70
2022-12-15T03:30:45.103Z,0.70
2022-12-15T03:35:48.734Z,0.70
2022-12-15T03:40:51.520Z,0.80
2022-12-15T03:45:54.504Z,0.80
2022-12-15T03:50:57.512Z,0.80
2022-12-15T03:56:00.373Z,0.80
2022-12-15T04:01:21.897Z,0.80
2022-12-15T04:06:24.941Z,0.80
2022-12-15T04:11:27.919Z,0.80
2022-12-15T04:16:30.943Z,0.90
2022-12-15T04:21:33.978Z,0.90
2022-12-15T04:26:55.244Z,0.90
2022-12-15T04:32:17.246Z,0.90
2022-12-15T04:37:38.406Z,0.90
2022-12-15T04:43:04.190Z,0.90
2022-12-15T04:48:26.200Z,0.90
2022-12-15T04:53:47.507Z,1.00
2022-12-15T04:59:08.820Z,0.90
2022-12-15T05:04:30.407Z,1.00
2022-12-15T05:09:51.816Z,1.00
2022-12-15T05:15:12.693Z,1.00
2022-12-15T05:20:34.052Z,1.00
2022-12-15T05:25:55.474Z,1.00
2022-12-15T05:31:16.905Z,1.00
2022-12-15T05:36:20.990Z,1.00
2022-12-15T05:41:24.531Z,0.90
2022-12-15T05:46:27.611Z,1.00
2022-12-15T05:51:30.615Z,1.00
2022-12-15T05:56:33.519Z,1.00
2022-12-15T06:01:37.537Z,1.00
2022-12-15T06:06:41.625Z,1.00
2022-12-15T06:11:44.817Z,1.00
2022-12-15T06:16:51.203Z,1.00
2022-12-15T06:21:54.393Z,1.00
2022-12-15T06:26:57.394Z,1.00
2022-12-15T06:32:00.413Z,1.00
2022-12-15T06:37:03.889Z,1.00
2022-12-15T06:42:06.866Z,1.00
2022-12-15T06:47:09.907Z,1.10
2022-12-15T06:52:12.878Z,1.10
2022-12-15T06:57:15.982Z,1.20
2022-12-15T07:02:22.443Z,1.20
2022-12-15T07:07:29.878Z,1.20
2022-12-15T07:12:32.661Z,1.30
2022-12-15T07:17:37.082Z,1.30
2022-12-15T07:22:40.266Z,1.30
2022-12-15T07:27:43.296Z,1.40
2022-12-15T07:32:50.196Z,1.50
2022-12-15T07:37:54.075Z,1.60
2022-12-15T07:42:57.444Z,1.70
2022-12-15T07:48:00.341Z,1.70
2022-12-15T07:53:03.453Z,1.70
2022-12-15T07:58:09.261Z,1.70
2022-12-15T08:03:12.236Z,1.80
2022-12-15T08:08:15.804Z,1.80
2022-12-15T08:13:52.504Z,1.90
2022-12-15T08:18:41.782Z,2.00
2022-12-15T08:23:45.174Z,2.10
2022-12-15T08:28:48.284Z,2.10
2022-12-15T08:33:51.653Z,2.20
2022-12-15T08:38:58.352Z,2.30
2022-12-15T08:44:02.442Z,2.40
2022-12-15T08:49:05.450Z,2.50
2022-12-15T08:54:09.384Z,2.70
2022-12-15T08:59:12.396Z,2.80
2022-12-15T09:04:15.682Z,3.00
2022-12-15T09:09:19.953Z,3.00
2022-12-15T09:14:28.863Z,3.00
2022-12-15T09:19:32.398Z,3.10
2022-12-15T09:24:35.725Z,3.20
2022-12-15T09:29:38.758Z,3.30
2022-12-15T09:34:42.095Z,3.40
2022-12-15T09:39:45.544Z,3.50
2022-12-15T09:44:50.560Z,3.60
2022-12-15T09:50:09.653Z,3.70
2022-12-15T09:55:26.147Z,3.80
2022-12-15T10:00:52.579Z,3.90
2022-12-15T10:06:21.414Z,4.00
2022-12-15T10:11:43.653Z,4.00
2022-12-15T10:17:11.122Z,4.20
2022-12-15T10:22:23.759Z,4.20
2022-12-15T10:28:06.242Z,4.10
2022-12-15T10:33:24.299Z,4.10
2022-12-15T10:38:42.578Z,4.10
2022-12-15T10:43:50.344Z,4.10
2022-12-15T10:49:08.778Z,4.10
2022-12-15T10:54:13.897Z,4.00
2022-12-15T10:59:34.064Z,4.00
2022-12-15T11:04:37.010Z,3.90
2022-12-15T11:09:40.497Z,4.00
2022-12-15T11:14:48.098Z,4.10
2022-12-15T11:20:04.383Z,4.10
2022-12-15T11:25:44.353Z,4.00
2022-12-15T11:31:00.411Z,4.00
2022-12-15T11:36:32.628Z,4.00
2022-12-15T11:42:11.843Z,4.00
2022-12-15T11:47:29.657Z,4.00
2022-12-15T11:52:57.048Z,4.00
2022-12-15T11:59:09.844Z,4.00
2022-12-15T12:04:21.803Z,4.00
2022-12-15T12:09:36.772Z,4.00
2022-12-15T12:15:08.286Z,4.10
2022-12-15T12:20:39.821Z,4.10
2022-12-15T12:26:02.914Z,4.10
2022-12-15T12:31:36.801Z,4.20
2022-12-15T12:36:43.956Z,4.10
2022-12-15T12:42:09.609Z,4.10
2022-12-15T12:47:20.385Z,4.10
2022-12-15T12:52:37.326Z,4.00
2022-12-15T12:57:42.841Z,4.00
2022-12-15T13:03:11.093Z,4.00
2022-12-15T13:08:13.797Z,4.00
2022-12-15T13:13:32.203Z,4.00
2022-12-15T13:19:03.016Z,4.00
2022-12-15T13:24:06.134Z,4.00
2022-12-15T13:29:14.070Z,4.00
2022-12-15T13:34:29.423Z,4.00
2022-12-15T13:39:35.625Z,4.00
2022-12-15T13:44:51.870Z,3.90
2022-12-15T13:50:15.381Z,3.80
2022-12-15T13:55:32.806Z,3.80
2022-12-15T14:00:39.384Z,3.70
2022-12-15T14:05:59.380Z,3.60
2022-12-15T14:16:27.070Z,3.50
2022-12-15T14:21:30.490Z,3.40
2022-12-15T14:26:33.501Z,3.30
2022-12-15T14:31:37.862Z,3.30
2022-12-15T14:36:42.990Z,3.20
2022-12-15T14:41:50.634Z,3.20
2022-12-15T14:46:54.901Z,3.10
2022-12-15T14:52:03.122Z,3.10
2022-12-15T14:57:23.343Z,3.10
2022-12-15T15:02:30.070Z,3.00
2022-12-15T15:03:14.143Z,3.50
2022-12-15T15:07:35.664Z,3.00
2022-12-15T15:12:45.483Z,3.00
2022-12-15T15:17:51.871Z,3.00
2022-12-15T15:23:17.489Z,2.90
2022-12-15T15:28:22.390Z,3.00
2022-12-15T15:33:26.617Z,3.00
2022-12-15T15:38:35.413Z,3.00
2022-12-15T15:43:38.773Z,3.00
2022-12-15T15:49:08.115Z,3.00
2022-12-15T15:54:18.127Z,3.00
2022-12-15T15:59:21.717Z,3.00
2022-12-15T16:04:25.461Z,3.00
2022-12-15T16:09:28.482Z,3.00
2022-12-15T16:14:31.404Z,3.00
2022-12-15T16:19:39.465Z,3.00
2022-12-15T16:24:43.672Z,3.00
2022-12-15T16:29:46.367Z,2.90
2022-12-15T16:34:52.702Z,2.90
2022-12-15T16:39:55.654Z,2.90
2022-12-15T16:44:58.714Z,2.90
2022-12-15T16:50:01.639Z,2.90
2022-12-15T16:55:05.060Z,2.90
2022-12-15T17:00:40.907Z,2.80
2022-12-15T17:05:49.672Z,2.80
2022-12-15T17:10:52.715Z,2.80
2022-12-15T17:15:55.923Z,2.80
2022-12-15T17:21:25.879Z,2.80
2022-12-15T17:26:32.317Z,2.80
2022-12-15T17:31:36.292Z,2.80
2022-12-15T17:36:39.404Z,2.80
2022-12-15T17:41:59.512Z,2.80
2022-12-15T17:47:05.721Z,2.80
2022-12-15T17:52:34.700Z,2.80
2022-12-15T17:57:38.047Z,2.80
2022-12-15T18:02:41.162Z,2.80
2022-12-15T18:07:45.217Z,2.80
2022-12-15T18:12:48.182Z,2.80
2022-12-15T18:17:51.122Z,2.80
2022-12-15T18:22:54.272Z,2.70
2022-12-15T18:28:00.185Z,2.70
2022-12-15T18:33:03.235Z,2.70
2022-12-15T18:38:25.308Z,2.70
2022-12-15T18:43:34.311Z,2.70
2022-12-15T18:48:37.670Z,2.70
2022-12-15T18:53:41.289Z,2.70
2022-12-15T18:58:44.375Z,2.70
2022-12-15T19:03:47.285Z,2.80
2022-12-15T19:08:51.348Z,2.70
2022-12-15T19:13:54.258Z,2.70
2022-12-15T19:19:17.463Z,2.70
2022-12-15T19:24:50.580Z,2.70
2022-12-15T19:29:55.192Z,2.70
2022-12-15T19:34:58.311Z,2.70
2022-12-15T19:40:02.368Z,2.70
2022-12-15T19:45:28.255Z,2.60
2022-12-15T19:50:37.391Z,2.60
2022-12-15T19:55:41.927Z,2.60
2022-12-15T20:00:45.046Z,2.60
2022-12-15T20:05:51.962Z,2.60
2022-12-15T20:10:56.058Z,2.70
2022-12-15T20:15:58.812Z,2.70
2022-12-15T20:21:01.991Z,2.70
2022-12-15T20:26:06.919Z,2.60
2022-12-15T20:31:15.798Z,2.60
2022-12-15T20:36:24.577Z,2.60
2022-12-15T20:41:29.395Z,2.60
2022-12-15T20:46:35.427Z,2.60
2022-12-15T20:51:38.432Z,2.60
2022-12-15T20:56:42.683Z,2.60
2022-12-15T21:01:46.918Z,2.60
2022-12-15T21:06:54.647Z,2.70
2022-12-15T21:11:58.656Z,2.70
2022-12-15T21:17:01.591Z,2.70
2022-12-15T21:22:06.466Z,2.70
2022-12-15T21:27:14.617Z,2.70
2022-12-15T21:32:17.864Z,2.70
2022-12-15T21:37:28.700Z,2.70
2022-12-15T21:42:35.788Z,2.70
2022-12-15T21:47:57.063Z,2.70
2022-12-15T21:53:01.466Z,2.70
2022-12-15T21:58:22.085Z,2.70
2022-12-15T22:03:25.362Z,2.70
2022-12-15T22:08:29.801Z,2.80
2022-12-15T22:13:33.938Z,2.80
2022-12-15T22:18:36.993Z,2.80
2022-12-15T22:23:40.110Z,2.70
2022-12-15T22:28:43.116Z,2.70
2022-12-15T22:33:46.171Z,2.80
2022-12-15T22:38:49.839Z,2.80
2022-12-15T22:43:55.786Z,2.80
2022-12-15T22:48:58.789Z,2.80
2022-12-15T22:54:02.157Z,2.80
2022-12-15T22:59:11.276Z,2.80
2022-12-15T23:04:14.452Z,2.80
2022-12-15T23:09:17.389Z,2.80
2022-12-15T23:14:40.287Z,2.90
2022-12-15T23:19:47.105Z,2.90
2022-12-15T23:24:50.028Z,2.90
2022-12-15T23:29:52.953Z,2.90
2022-12-15T23:34:57.908Z,2.90
2022-12-15T23:40:01.183Z,2.90
2022-12-15T23:45:05.397Z,2.90
2022-12-15T23:50:08.948Z,2.90
2022-12-15T23:55:12.066Z,2.90
